Flight Track Log - Related Links

Times and Time Zones

All times are in EST time to prevent confusion due to time zone crossing. See the N57HC flight status page for this flight to view local times or setup timezone preferences in your user account.

Time Position Orientation Groundspeed Altitude Reporting Facility
EST Latitude Longitude Course Direction KTS MPH feet Rate Location/Type
Sun 02:34:38 PM 26.7394 -80.1250 52° Northeast 214 246 7,700  Level Miami Center
Sun 02:35:38 PM 26.7658 -80.0606 65° Northeast 241 277 10,400 2,750 Climbing Miami Center
Sun 02:36:38 PM 26.8053 -79.9825 60° Northeast 252 290 13,200 2,350 Climbing Miami Center
Sun 02:37:38 PM 26.8422 -79.9136 59° Northeast 260 299 15,100 2,100 Climbing Miami Center
Sun 02:38:00 PM 27.1647 -79.8740 69° East  Level Estimated
Sun 02:38:38 PM 26.8811 -79.8494 56° Northeast 270 311 17,400  Level Miami Center
Sun 02:39:00 PM 27.2610 -79.8295 52° Northeast  Level Estimated
Sun 02:39:38 PM 26.9242 -79.7783 56° Northeast 275 316 19,500  Level Miami Center
Sun 02:40:38 PM 26.9739 -79.6981 55° Northeast 280 322 21,600 1,700 Climbing Miami Center
Sun 02:41:38 PM 27.0192 -79.6197 57° Northeast 287 330 22,900 700 Climbing Miami Center
Sun 02:42:38 PM 27.0711 -79.5347 56° Northeast 309 356 23,000 50 Climbing Miami Center
Sun 02:43:38 PM 27.1247 -79.4472 55° Northeast 351 404 23,000 400 Level Miami Center
Sun 02:44:38 PM 27.1828 -79.3506 56° Northeast 375 432 23,800 1,400 Climbing Miami Center
Sun 02:45:38 PM 27.2431 -79.2514 56° Northeast 356 410 25,800 1,750 Climbing Miami Center
Sun 02:46:38 PM 27.2967 -79.1611 56° Northeast 351 404 27,300 1,450 Climbing Miami Center
Sun 02:47:38 PM 27.3503 -79.0733 55° Northeast 341 392 28,700 1,250 Climbing Miami Center
Sun 02:48:38 PM 27.3994 -78.9925 56° Northeast 341 392 29,800 1,150 Climbing Miami Center
Sun 02:49:38 PM 27.4572 -78.8928 57° Northeast 341 392 31,000 1,150 Climbing Miami Center
Sun 02:50:38 PM 27.5192 -78.8072 51° Northeast 341 392 32,100 1,150 Climbing Miami Center
Sun 02:51:38 PM 27.6072 -78.7714 20° North 329 379 33,300 1,250 Climbing Miami Center
Sun 02:52:38 PM 27.6908 -78.7586 North 319 367 34,600 1,150 Climbing Miami Center
Sun 02:53:38 PM 27.7850 -78.7461 North 324 373 35,600 1,100 Climbing Miami Center
Sun 02:54:38 PM 27.8756 -78.6936 27° Northeast 318 366 36,800 1,050 Climbing Miami Center
Sun 02:55:38 PM 27.9389 -78.6383 38° Northeast 323 372 37,700 1,000 Climbing Miami Center
Sun 02:56:38 PM 28.0228 -78.5947 25° Northeast 328 377 38,800 1,100 Climbing Miami Center
Sun 02:57:38 PM 28.1086 -78.5750 11° North 316 364 39,900 800 Climbing Miami Center
Sun 02:58:38 PM 28.2008 -78.5528 12° North 316 364 40,400 550 Climbing Miami Center
Sun 02:59:38 PM 28.2847 -78.5281 15° North 324 373 41,000 300 Climbing Miami Center
Sun 03:00:38 PM 28.3808 -78.5036 13° North 330 380 41,000  Level Miami Center
Sun 03:01:38 PM 28.4794 -78.4767 14° North 346 398 41,000  Level Miami Center
Sun 03:02:38 PM 28.5839 -78.4497 13° North 365 420 41,000  Level Miami Center
Sun 03:03:38 PM 28.6928 -78.4206 13° North 375 432 41,000  Level Miami Center
Sun 03:04:38 PM 28.8017 -78.3936 12° North 385 443 41,000  Level Miami Center
Sun 03:05:38 PM 28.9125 -78.3619 14° North 397 457 41,000  Level Miami Center
Sun 03:06:38 PM 29.0194 -78.3325 14° North 397 457 41,000  Level Miami Center
Sun 03:07:38 PM 29.1322 -78.3008 14° North 403 464 41,000  Level Miami Center
Sun 03:08:38 PM 29.2475 -78.2692 13° North 403 464 41,000  Level Miami Center
Sun 03:09:38 PM 29.3625 -78.2394 13° North 416 479 41,000  Level Miami Center
Sun 03:10:38 PM 29.4733 -78.2075 14° North 416 479 41,000  Level Miami Center
Sun 03:11:38 PM 29.5925 -78.1781 12° North 416 479 41,000  Level Miami Center
Sun 03:12:38 PM 29.7033 -78.1458 14° North 416 479 41,000  Level Miami Center
Sun 03:13:38 PM 29.8203 -78.1211 10° North 416 479 41,000  Level Miami Center
Sun 03:15:05 PM 29.9808 -78.0636 17° North 428 493 41,000  Level Jacksonville Center
Sun 03:16:05 PM 30.0944 -78.0317 14° North 427 491 41,000  Level Jacksonville Center
Sun 03:17:05 PM 30.2183 -77.9917 16° North 421 484 41,000  Level Jacksonville Center
Sun 03:18:05 PM 30.3339 -77.9569 15° North 422 486 41,000  Level Jacksonville Center
Sun 03:19:05 PM 30.4514 -77.9244 13° North 426 490 41,000  Level Jacksonville Center
Sun 03:20:05 PM 30.5647 -77.8869 16° North 419 482 41,000  Level Jacksonville Center
Sun 03:21:05 PM 30.6806 -77.8592 12° North 419 482 41,000  Level Jacksonville Center
Sun 03:22:05 PM 30.7964 -77.8339 11° North 419 482 41,000  Level Jacksonville Center
Sun 03:23:05 PM 30.9119 -77.7961 16° North 419 482 41,000  Level Jacksonville Center
Sun 03:24:05 PM 31.0275 -77.7633 14° North 419 482 41,000  Level Jacksonville Center
Sun 03:25:05 PM 31.1431 -77.7350 12° North 419 482 41,000  Level Jacksonville Center
Sun 03:26:05 PM 31.2583 -77.6972 16° North 419 482 41,000  Level Jacksonville Center
Sun 03:27:05 PM 31.3719 -77.6642 14° North 424 488 41,000  Level Jacksonville Center
Sun 03:28:05 PM 31.4875 -77.6356 12° North 424 488 41,000  Level Jacksonville Center
Sun 03:29:05 PM 31.6011 -77.6072 12° North 424 488 41,000  Level Jacksonville Center
Sun 03:30:05 PM 31.7206 -77.5664 16° North 429 494 41,000  Level Jacksonville Center
Sun 03:31:05 PM 31.8383 -77.5350 13° North 429 494 41,000  Level Jacksonville Center
Sun 03:32:05 PM 31.9517 -77.5017 14° North 429 494 41,000  Level Jacksonville Center
Sun 03:34:05 PM 32.1847 -77.4364 13° North 429 494 41,000  Level Jacksonville Center
Sun 03:35:05 PM 32.3003 -77.4047 13° North 429 494 41,000  Level Jacksonville Center
Sun 03:36:05 PM 32.4197 -77.3681 15° North 429 494 41,000  Level Jacksonville Center
Sun 03:37:05 PM 32.5350 -77.3364 13° North 429 494 41,000  Level Jacksonville Center
Sun 03:38:05 PM 32.6525 -77.2997 15° North 429 494 41,000  Level Jacksonville Center
Sun 03:39:05 PM 32.7719 -77.2650 14° North 429 494 41,000  Level Jacksonville Center
Sun 03:40:04 PM 32.8819 -77.2333 14° North 428 493 41,000  Level Washington Center
Sun 03:41:04 PM 32.9992 -77.2011 13° North 449 517 41,000  Level Washington Center
Sun 03:42:05 PM 33.1164 -77.1661 14° North 443 510 41,000  Level Washington Center
Sun 03:43:05 PM 33.2336 -77.1311 14° North 433 498 41,000  Level Washington Center
Sun 03:44:06 PM 33.3489 -77.0958 14° North 433 498 41,000  Level Washington Center
Sun 03:45:07 PM 33.4639 -77.0631 13° North 427 491 41,000  Level Washington Center
Sun 03:46:05 PM 33.5811 -77.0278 14° North 427 491 41,000  Level Washington Center
Sun 03:47:05 PM 33.6983 -76.9922 14° North 427 491 41,000  Level Washington Center
Sun 03:48:06 PM 33.8136 -76.9567 14° North 427 491 41,000  Level Washington Center
Sun 03:49:07 PM 33.9308 -76.9236 13° North 427 491 41,000  Level Washington Center
Sun 03:50:05 PM 34.0458 -76.8878 14° North 427 491 41,000  Level Washington Center
Sun 03:51:06 PM 34.1653 -76.8519 14° North 432 497 41,000  Level Washington Center
Sun 03:52:04 PM 34.2803 -76.8161 14° North 432 497 41,000  Level Washington Center
Sun 03:53:05 PM 34.3953 -76.7825 14° North 432 497 41,000  Level Washington Center
Sun 03:54:05 PM 34.5125 -76.7489 13° North 432 497 41,000  Level Washington Center
Sun 03:55:06 PM 34.6319 -76.7128 14° North 432 497 41,000  Level Washington Center
Sun 03:56:04 PM 34.7386 -76.6789 15° North 432 497 41,000  Level Washington Center
Sun 03:57:05 PM 34.8536 -76.6425 15° North 433 498 41,000  Level Washington Center
Sun 03:58:06 PM 34.9708 -76.6058 14° North 433 498 41,000  Level Washington Center
Sun 03:59:06 PM 35.0900 -76.5719 13° North 433 498 41,000  Level Washington Center
Sun 04:00:05 PM 35.2050 -76.5325 16° North 422 486 41,000  Level Washington Center
Sun 04:01:06 PM 35.3181 -76.4983 14° North 422 486 41,000  Level Washington Center
Sun 04:02:06 PM 35.4456 -76.4564 15° North 422 486 41,000  Level Washington Center
Sun 04:03:06 PM 35.5647 -76.4169 15° North 422 486 41,000  Level Washington Center
Sun 04:04:04 PM 35.6819 -76.3797 14° North 427 491 41,000  Level Washington Center
Sun 04:05:04 PM 35.7969 -76.3450 14° North 427 491 41,000  Level Washington Center
Sun 04:06:05 PM 35.9139 -76.3100 14° North 427 491 41,000  Level Washington Center
Sun 04:07:06 PM 36.0289 -76.2725 15° North 427 491 41,000  Level Washington Center
Sun 04:08:07 PM 36.1417 -76.2350 15° North 427 491 41,000  Level Washington Center
Sun 04:09:04 PM 36.2567 -76.2000 14° North 422 486 41,000  Level Washington Center
Sun 04:10:04 PM 36.3717 -76.1647 14° North 417 480 41,000  Level Washington Center
Sun 04:11:05 PM 36.4844 -76.1292 14° North 411 473 41,000  Level Washington Center
Sun 04:12:06 PM 36.5953 -76.0939 14° North 411 473 41,000  Level Washington Center
Sun 04:13:07 PM 36.6831 -76.0633 16° North 411 473 41,000  Level Washington Center
Sun 04:14:05 PM 36.8125 -76.0200 15° North 418 481 41,000  Level Washington Center
Sun 04:15:05 PM 36.9253 -75.9817 15° North 412 474 41,000  Level Washington Center
Sun 04:16:06 PM 37.0464 -75.9483 12° North 428 493 41,000  Level Washington Center
Sun 04:17:06 PM 37.1592 -75.9125 14° North 428 493 41,000  Level Washington Center
Sun 04:18:06 PM 37.2717 -75.8736 15° North 423 487 41,000  Level Washington Center
Sun 04:19:05 PM 37.3825 -75.8375 15° North 416 479 41,000  Level Washington Center
Sun 04:20:05 PM 37.4953 -75.8011 14° North 411 473 41,000  Level Washington Center
Sun 04:21:06 PM 37.6058 -75.7622 16° North 411 473 41,000  Level Washington Center
Sun 04:22:06 PM 37.7183 -75.7258 14° North 411 473 41,000  Level Washington Center
Sun 04:23:05 PM 37.8247 -75.6892 15° North 411 473 41,000  Level Washington Center
Sun 04:24:05 PM 37.9375 -75.6522 14° North 411 473 41,000  Level Washington Center
Sun 04:25:06 PM 38.0564 -75.6075 16° North 406 467 41,000  Level Washington Center
Sun 04:26:05 PM 38.1669 -75.5706 15° North 401 461 41,000  Level Washington Center
Sun 04:27:05 PM 38.2775 -75.5308 16° North 401 461 41,000  Level Washington Center
Sun 04:28:06 PM 38.3878 -75.4936 15° North 401 461 41,000  Level Washington Center
Sun 04:33:35 PM 38.9510 -75.2300 15° North 100 115 41,000  Level FlightAware ADS-B
Sun 04:34:00 PM 38.9970 -75.1900 34° Northeast 100 115 41,000  Level FlightAware ADS-B
Sun 04:34:46 PM 39.0750 -75.1400 26° Northeast 439 505 41,000  Level FlightAware ADS-B
Sun 04:35:10 PM 39.1130 -75.0900 46° Northeast 433 498 41,000  Level FlightAware ADS-B
Sun 04:35:50 PM 39.1850 -75.0340 31° Northeast 460 529 41,000  Level FlightAware ADS-B
Sun 04:36:52 PM 39.2810 -74.9590 31° Northeast 460 529 41,000  Level FlightAware ADS-B
Sun 04:38:02 PM 39.3900 -74.8750 31° Northeast 460 529 41,000  Level FlightAware ADS-B
Sun 04:38:47 PM 39.4700 -74.7840 41° Northeast 460 529 41,000  Level FlightAware ADS-B
Sun 04:39:25 PM 39.5430 -74.7180 35° Northeast 440 506 41,000 -308 Level FlightAware ADS-B
Sun 04:40:05 PM 39.6140 -74.6640 30° Northeast 463 533 40,600 -640 Descending FlightAware ADS-B
Sun 04:40:40 PM 39.6750 -74.6110 34° Northeast 457 526 40,200 -800 Descending FlightAware ADS-B
Sun 04:41:35 PM 39.7690 -74.5270 34° Northeast 461 531 39,400 -933 Descending FlightAware ADS-B
Sun 04:42:10 PM 39.8360 -74.4720 32° Northeast 443 510 38,800 -1,015 Descending FlightAware ADS-B
Sun 04:42:40 PM 39.8900 -74.4240 34° Northeast 490 564 38,300 -1,015 Descending FlightAware ADS-B
Sun 04:43:15 PM 39.9530 -74.3690 34° Northeast 469 540 37,700 -975 Descending FlightAware ADS-B
Sun 04:44:00 PM 40.0370 -74.3190 24° Northeast 438 504 37,000 -988 Descending FlightAware ADS-B
Sun 04:44:40 PM 40.1150 -74.3020 North 434 499 36,300 -1,050 Descending FlightAware ADS-B
Sun 04:45:20 PM 40.1920 -74.2850 10° North 411 473 35,600 -1,040 Descending FlightAware ADS-B
Sun 04:45:55 PM 40.2610 -74.2690 10° North 411 473 35,000 -1,108 Descending FlightAware ADS-B
Sun 04:46:25 PM 40.3220 -74.2560 North 430 495 34,400 -1,440 Descending FlightAware ADS-B
Sun 04:47:35 PM 40.4530 -74.2300 North 409 471 32,600 -1,543 Descending FlightAware ADS-B
Sun 04:48:10 PM 40.5180 -74.1920 24° Northeast 430 495 31,700 -1,745 Descending FlightAware ADS-B
Sun 04:48:30 PM 40.5540 -74.1650 30° Northeast 434 499 31,000 -1,680 Descending FlightAware ADS-B
Sun 04:49:00 PM 40.5990 -74.1130 41° Northeast 465 535 30,300 -1,527 Descending FlightAware ADS-B
Sun 04:49:25 PM 40.6260 -74.0470 62° Northeast 477 549 29,600 -1,500 Descending FlightAware ADS-B
Sun 04:50:20 PM 40.6600 -73.9020 73° East 468 539 28,300 -1,533 Descending FlightAware ADS-B
Sun 04:50:55 PM 40.6800 -73.8080 74° East 433 498 27,300 -1,600 Descending FlightAware ADS-B
Sun 04:51:20 PM 40.6930 -73.7460 75° East 435 501 26,700 -675 Descending FlightAware ADS-B
Sun 04:52:15 PM 40.7200 -73.6320 73° East 422 486 26,400 -198 Descending FlightAware ADS-B
Sun 04:52:51 PM 40.7380 -73.5570 72° East 422 486 26,400  Level FlightAware ADS-B
Sun 04:53:15 PM 40.7510 -73.5070 71° East 422 486 26,400  Level FlightAware ADS-B
Sun 04:53:50 PM 40.7690 -73.4340 72° East 422 486 26,400  Level FlightAware ADS-B
Sun 04:54:26 PM 40.7870 -73.3590 72° East 422 486 26,400  Level FlightAware ADS-B
Sun 04:55:14 PM 40.8120 -73.2590 72° East 422 486 26,400 -2,516 Level FlightAware ADS-B
Sun 04:55:59 PM 40.9250 -73.1506 72° East 383 441 22,500 -2,887 Descending Boston Center
Sun 04:57:00 PM 41.0189 -73.0406 41° Northeast 380 437 21,300 -1,082 Descending Boston Center
Sun 04:58:01 PM 41.0969 -72.9486 42° Northeast 377 434 20,300 -984 Descending Boston Center
Sun 04:59:02 PM 41.1742 -72.8583 41° Northeast 375 432 19,300 -1,016 Descending Boston Center
Sun 05:00:05 PM 41.2547 -72.7611 42° Northeast 372 428 18,200 -1,065 Descending Boston Center
Sun 05:01:06 PM 41.3425 -72.6789 35° Northeast 362 417 17,100 -1,131 Descending Boston Center
Sun 05:02:07 PM 41.4269 -72.6425 18° North 322 371 15,900 -992 Descending Boston Center
Sun 05:03:07 PM 41.5133 -72.6033 19° North 326 375 15,100 -629 Descending Boston Center
Sun 05:03:52 PM 41.5778 -72.5767 17° North 324 373 14,800 -667 Descending Boston Center
Sun 05:04:10 PM 41.6053 -72.5644 18° North 322 371 14,400 -1,256 Descending Boston Center
Sun 05:04:35 PM 41.6347 -72.5511 19° North 313 360 13,900 -1,180 Descending Boston Center
Sun 05:05:11 PM 41.6800 -72.5092 35° Northeast 317 365 13,200 -1,273 Descending Boston Center
Sun 05:05:41 PM 41.7167 -72.4650 42° Northeast 334 384 12,500 -1,400 Descending Boston Center
Sun 05:06:11 PM 41.7500 -72.4289 39° Northeast 332 382 11,800 -1,377 Descending Boston Center
Sun 05:06:42 PM 41.7858 -72.3886 40° Northeast 322 371 11,100 -787 Descending Boston Center
Sun 05:07:12 PM 41.8214 -72.3486 40° Northeast 310 357 11,000 -98 Descending Boston Center
Sun 05:07:43 PM 41.8517 -72.3167 38° Northeast 307 353 11,000  Level Boston Center
Sun 05:08:14 PM 41.8878 -72.2747 41° Northeast 313 360 11,000  Level Boston Center
Sun 05:08:48 PM 41.9292 -72.2286 40° Northeast 323 372 11,000  Level Boston Center
Sun 05:09:15 PM 41.9547 -72.1983 41° Northeast 317 365 11,000 -435 Level Boston Center
Sun 05:09:57 PM 41.9992 -72.1464 41° Northeast 306 352 10,500 -800 Descending Boston Center
Sun 05:10:15 PM 42.0189 -72.1250 39° Northeast 306 352 10,200 -980 Descending Boston Center
Sun 05:10:46 PM 42.0486 -72.0914 40° Northeast 293 337 9,700 -1,031 Descending Boston Center
Sun 05:11:19 PM 42.0878 -72.0456 41° Northeast 304 350 9,100 -985 Descending Boston Center
Sun 05:11:53 PM 42.1231 -72.0075 39° Northeast 305 351 8,600 -984 Descending Boston Center
Sun 05:12:20 PM 42.1525 -71.9733 41° Northeast 303 349 8,100 -1,000 Descending Boston Center
Sun 05:12:59 PM 42.1908 -71.9358 36° Northeast 280 322 7,500 -1,065 Descending Boston Center
Sun 05:13:22 PM 42.2122 -71.9106 41° Northeast 277 319 7,000 -1,301 Descending Boston Center
Sun 05:14:22 PM 42.2728 -71.8433 39° Northeast 280 322 5,700 -1,000 Descending Boston Center
Sun 05:15:22 PM 42.3286 -71.7803 40° Northeast 247 284 5,000 -347 Descending Boston Center
Sun 05:16:23 PM 42.3839 -71.7172 40° Northeast 252 290 5,000 -192 Level Boston Center
Sun 05:17:27 PM 42.4306 -71.6472 48° Northeast 250 288 4,600 -864 Descending Boston Center
Sun 05:18:35 PM 42.4667 -71.5500 63° Northeast 271 312 3,100 -716 Descending KA90
Sun 05:19:41 PM 42.5000 -71.4500 66° East 254 292 3,000 -47 Descending KA90
Sun 05:20:42 PM 42.5167 -71.3500 77° East 251 289 3,000 -313 Level KA90
Sun 05:21:36 PM 42.5167 -71.2833 90° East 212 244 2,400 -600 Descending KA90
Sun 05:22:42 PM 42.5167 -71.2000 90° East 160 184 1,800 -476 Descending KA90
Sun 05:23:42 PM 42.4667 -71.2000 180° South 132 152 1,400 -550 Descending KA90
Sun 05:24:42 PM 42.4667 -71.2500 270° West 112 129 700 -700 Descending KA90
Sun 05:27:00 PM 42.4667 -71.2833 270° West  Level FlightAware Approximate

Login

Don't have an account? Register now (free) for customized features, flight alerts, and more!